createdAt,value
2022-10-13T00:04:38.607Z,15.10
2022-10-13T00:09:40.024Z,13.98
2022-10-13T00:14:41.567Z,13.70
2022-10-13T00:19:42.966Z,13.95
2022-10-13T00:24:44.684Z,15.07
2022-10-13T00:29:47.154Z,13.07
2022-10-13T00:34:48.579Z,12.60
2022-10-13T00:39:50.814Z,13.13
2022-10-13T00:45:28.715Z,13.95
2022-10-13T00:50:37.626Z,13.63
2022-10-13T00:55:41.759Z,14.55
2022-10-13T01:00:46.689Z,14.65
2022-10-13T01:05:51.387Z,13.27
2022-10-13T01:11:17.067Z,12.13
2022-10-13T01:16:21.429Z,13.02
2022-10-13T01:21:39.008Z,13.07
2022-10-13T01:27:08.075Z,13.70
2022-10-13T01:32:29.790Z,12.97
2022-10-13T01:38:11.319Z,14.82
2022-10-13T01:43:26.062Z,13.05
2022-10-13T01:48:28.594Z,12.50
2022-10-13T01:53:30.755Z,13.35
2022-10-13T01:58:35.920Z,11.80
2022-10-13T02:04:00.599Z,10.82
2022-10-13T02:09:43.474Z,10.48
2022-10-13T02:14:47.663Z,12.35
2022-10-13T02:19:49.330Z,11.43
2022-10-13T02:24:51.001Z,11.27
2022-10-13T02:29:55.852Z,10.90
2022-10-13T02:35:01.415Z,10.77
2022-10-13T02:40:03.249Z,11.48
2022-10-13T02:45:05.199Z,11.48
2022-10-13T02:50:07.171Z,11.88
2022-10-13T02:55:08.884Z,12.75
2022-10-13T03:00:10.945Z,11.45
2022-10-13T03:05:12.334Z,11.15
2022-10-13T03:10:13.879Z,11.57
2022-10-13T03:15:15.472Z,12.30
2022-10-13T03:20:17.592Z,11.68
2022-10-13T03:25:18.992Z,11.57
2022-10-13T03:30:20.403Z,11.60
2022-10-13T03:35:21.857Z,10.40
2022-10-13T03:40:23.322Z,12.07
2022-10-13T03:45:24.727Z,12.05
2022-10-13T03:50:26.191Z,11.38
2022-10-13T03:55:28.975Z,10.30
2022-10-13T04:00:30.426Z,10.77
2022-10-13T04:05:34.062Z,9.43
2022-10-13T04:10:35.628Z,10.45
2022-10-13T04:15:40.610Z,10.82
2022-10-13T04:20:42.031Z,10.93
2022-10-13T04:25:43.454Z,10.60
2022-10-13T04:30:49.265Z,11.73
2022-10-13T04:35:51.031Z,10.65
2022-10-13T04:40:52.414Z,9.50
2022-10-13T04:45:53.799Z,9.88
2022-10-13T04:51:03.425Z,9.38
2022-10-13T04:56:08.314Z,10.85
2022-10-13T05:01:18.850Z,9.90
2022-10-13T05:06:35.814Z,12.05
2022-10-13T05:11:37.402Z,9.88
2022-10-13T05:16:38.787Z,10.25
2022-10-13T05:21:40.263Z,10.27
2022-10-13T05:26:41.913Z,9.30
2022-10-13T05:31:43.294Z,9.45
2022-10-13T05:36:44.672Z,8.93
2022-10-13T05:41:46.115Z,9.25
2022-10-13T05:46:55.111Z,9.40
2022-10-13T05:52:03.208Z,10.65
2022-10-13T05:57:08.764Z,8.75
2022-10-13T06:02:14.662Z,8.68
2022-10-13T06:07:16.980Z,8.55
2022-10-13T06:12:18.566Z,8.52
2022-10-13T06:17:20.255Z,9.40
2022-10-13T06:22:22.070Z,8.07
2022-10-13T06:27:23.961Z,7.93
2022-10-13T06:32:27.969Z,7.65
2022-10-13T06:37:29.380Z,7.75
2022-10-13T06:42:30.878Z,7.65
2022-10-13T06:47:44.601Z,8.38
2022-10-13T06:52:46.507Z,9.75
2022-10-13T06:57:48.142Z,9.73
2022-10-13T07:02:51.202Z,9.98
2022-10-13T07:07:53.003Z,10.10
2022-10-13T07:12:54.392Z,11.15
2022-10-13T07:17:57.876Z,10.63
2022-10-13T07:22:59.318Z,9.98
2022-10-13T07:28:00.755Z,14.05
2022-10-13T07:33:02.133Z,12.07
2022-10-13T07:38:03.548Z,10.68
2022-10-13T07:43:04.945Z,10.73
2022-10-13T07:48:06.689Z,10.70
2022-10-13T07:53:08.135Z,11.77
2022-10-13T07:58:09.818Z,11.70
2022-10-13T08:03:11.219Z,9.88
2022-10-13T08:08:12.623Z,9.55
2022-10-13T08:13:14.244Z,10.75
2022-10-13T08:18:16.081Z,11.10
2022-10-13T08:23:17.483Z,10.65
2022-10-13T08:28:27.758Z,11.05
2022-10-13T08:33:29.180Z,10.52
2022-10-13T08:38:30.564Z,10.88
2022-10-13T08:43:32.071Z,10.20
2022-10-13T08:48:40.138Z,11.13
2022-10-13T08:53:43.929Z,10.52
2022-10-13T08:58:48.934Z,10.95
2022-10-13T09:04:11.127Z,11.27
2022-10-13T09:09:17.891Z,12.90
2022-10-13T09:14:26.037Z,11.18
2022-10-13T09:19:34.655Z,13.02
2022-10-13T09:24:36.073Z,11.70
2022-10-13T09:29:37.503Z,10.75
2022-10-13T09:34:38.943Z,10.90
2022-10-13T09:39:40.343Z,10.18
2022-10-13T09:44:41.883Z,11.05
2022-10-13T09:49:44.043Z,10.60
2022-10-13T09:54:51.285Z,9.80
2022-10-13T10:00:16.989Z,9.15
2022-10-13T10:05:26.948Z,10.27
2022-10-13T10:10:36.778Z,10.93
2022-10-13T10:16:14.708Z,11.18
2022-10-13T10:21:36.576Z,9.93
2022-10-13T10:26:54.729Z,10.45
2022-10-13T10:32:27.705Z,10.50
2022-10-13T10:37:34.968Z,10.63
2022-10-13T10:43:01.704Z,9.57
2022-10-13T10:48:16.160Z,9.85
2022-10-13T10:53:27.703Z,9.43
2022-10-13T10:58:49.552Z,9.15
2022-10-13T11:04:18.895Z,8.85
2022-10-13T11:09:41.925Z,9.48
2022-10-13T11:14:43.319Z,9.60
2022-10-13T11:19:46.475Z,9.00
2022-10-13T11:24:56.632Z,9.10
2022-10-13T11:30:00.197Z,7.55
2022-10-13T11:35:04.588Z,7.95
2022-10-13T11:40:28.046Z,5.50
2022-10-13T11:45:38.499Z,4.88
2022-10-13T11:51:04.374Z,5.15
2022-10-13T11:56:19.220Z,4.72
2022-10-13T12:01:20.861Z,5.88
2022-10-13T12:06:25.921Z,4.30
2022-10-13T12:11:37.470Z,5.88
2022-10-13T12:16:51.568Z,4.75
2022-10-13T12:22:00.821Z,4.50
2022-10-13T12:27:10.873Z,4.93
2022-10-13T12:32:30.287Z,6.07
2022-10-13T12:37:35.115Z,4.70
2022-10-13T12:42:38.198Z,4.60
2022-10-13T12:47:46.679Z,3.65
2022-10-13T12:57:51.418Z,4.05
2022-10-13T13:03:07.072Z,3.72
2022-10-13T13:08:30.261Z,4.00
2022-10-13T13:18:36.935Z,4.25
2022-10-13T13:23:38.424Z,6.50
2022-10-13T13:28:54.902Z,4.25
2022-10-13T13:33:56.323Z,4.22
2022-10-13T13:38:57.693Z,4.45
2022-10-13T13:43:59.115Z,4.05
2022-10-13T13:49:00.703Z,4.80
2022-10-13T13:54:02.128Z,5.05
2022-10-13T13:59:03.547Z,3.90
2022-10-13T14:04:05.032Z,4.78
2022-10-13T14:09:06.447Z,4.40
2022-10-13T14:14:07.880Z,3.90
2022-10-13T14:19:09.382Z,4.43
2022-10-13T14:24:10.809Z,5.22
2022-10-13T14:29:12.288Z,4.80
2022-10-13T14:34:13.723Z,4.72
2022-10-13T14:39:15.104Z,5.10
2022-10-13T14:44:16.562Z,4.50
2022-10-13T14:49:19.664Z,5.07
2022-10-13T14:54:23.924Z,5.15
2022-10-13T14:59:25.610Z,5.00
2022-10-13T15:04:27.051Z,5.03
2022-10-13T15:09:38.748Z,6.68
2022-10-13T15:14:49.896Z,6.20
2022-10-13T15:19:51.372Z,4.72
2022-10-13T15:24:52.800Z,5.50
2022-10-13T15:29:54.190Z,4.28
2022-10-13T15:34:55.605Z,5.22
2022-10-13T15:39:57.808Z,5.53
2022-10-13T15:45:14.521Z,4.68
2022-10-13T15:50:16.070Z,4.28
2022-10-13T15:55:18.031Z,4.80
2022-10-13T16:00:19.460Z,5.13
2022-10-13T16:05:20.871Z,6.03
2022-10-13T16:10:22.309Z,13.13
2022-10-13T16:15:23.747Z,17.27
2022-10-13T16:20:25.323Z,11.60
2022-10-13T16:25:27.115Z,9.50
2022-10-13T16:30:28.682Z,9.10
2022-10-13T16:35:30.149Z,8.02
2022-10-13T16:40:31.564Z,6.32
2022-10-13T16:45:54.973Z,5.88
2022-10-13T16:50:55.310Z,5.53
2022-10-13T16:55:57.631Z,5.95
2022-10-13T17:01:04.448Z,6.93
2022-10-13T17:06:06.603Z,9.27
2022-10-13T17:11:22.753Z,12.30
2022-10-13T17:16:25.098Z,9.23
2022-10-13T17:21:26.538Z,8.15
2022-10-13T17:26:28.274Z,7.13
2022-10-13T17:31:30.178Z,7.35
2022-10-13T17:36:31.988Z,7.88
2022-10-13T17:41:35.820Z,11.77
2022-10-13T17:46:38.597Z,7.65
2022-10-13T17:51:42.307Z,9.00
2022-10-13T17:56:43.990Z,12.25
2022-10-13T18:01:45.912Z,12.73
2022-10-13T18:06:47.563Z,7.82
2022-10-13T18:11:51.077Z,6.93
2022-10-13T18:16:53.389Z,8.18
2022-10-13T18:21:54.790Z,9.10
2022-10-13T18:26:56.282Z,8.13
2022-10-13T18:31:58.354Z,8.40
2022-10-13T18:36:59.829Z,8.25
2022-10-13T18:42:01.247Z,6.88
2022-10-13T18:47:08.573Z,8.48
2022-10-13T18:52:10.011Z,12.90
2022-10-13T18:57:14.088Z,9.68
2022-10-13T19:02:15.583Z,8.85
2022-10-13T19:07:17.022Z,8.57
2022-10-13T19:12:18.394Z,9.63
2022-10-13T19:17:20.036Z,9.02
2022-10-13T19:22:21.573Z,11.73
2022-10-13T19:27:23.251Z,10.77
2022-10-13T19:32:24.996Z,11.15
2022-10-13T19:37:26.427Z,8.65
2022-10-13T19:42:28.161Z,7.25
2022-10-13T19:47:29.640Z,4.72
2022-10-13T19:52:31.054Z,4.18
2022-10-13T19:57:32.451Z,3.88
2022-10-13T20:02:33.915Z,3.90
2022-10-13T20:07:35.351Z,3.78
2022-10-13T20:12:40.299Z,3.35
2022-10-13T20:17:41.741Z,3.33
2022-10-13T20:22:43.118Z,3.88
2022-10-13T20:27:44.511Z,3.63
2022-10-13T20:32:45.919Z,3.78
2022-10-13T20:37:47.362Z,3.90
2022-10-13T20:42:50.561Z,4.05
2022-10-13T20:47:52.287Z,4.00
2022-10-13T20:52:53.675Z,4.70
2022-10-13T20:57:55.089Z,3.85
2022-10-13T21:03:01.148Z,3.70
2022-10-13T21:08:03.507Z,4.03
2022-10-13T21:13:05.661Z,4.13
2022-10-13T21:18:07.848Z,3.60
2022-10-13T21:23:11.411Z,3.58
2022-10-13T21:28:12.849Z,2.75
2022-10-13T21:33:14.248Z,2.58
2022-10-13T21:38:15.647Z,2.83
2022-10-13T21:43:20.459Z,2.13
2022-10-13T21:48:21.951Z,2.88
2022-10-13T21:53:23.330Z,2.30
2022-10-13T21:58:24.737Z,2.08
2022-10-13T22:03:26.416Z,2.85
2022-10-13T22:08:37.885Z,2.92
2022-10-13T22:13:47.163Z,2.85
2022-10-13T22:18:51.707Z,3.30
2022-10-13T22:23:56.700Z,2.33
2022-10-13T22:28:59.603Z,2.55
2022-10-13T22:34:02.856Z,2.10
2022-10-13T22:39:04.962Z,2.28
2022-10-13T22:44:06.392Z,2.50
2022-10-13T22:49:07.921Z,2.13
2022-10-13T22:54:09.494Z,1.80
2022-10-13T22:59:11.815Z,2.08
2022-10-13T23:04:13.240Z,2.78
2022-10-13T23:09:14.641Z,2.20
2022-10-13T23:14:16.088Z,1.83
2022-10-13T23:19:17.506Z,1.85
2022-10-13T23:24:18.999Z,2.22
2022-10-13T23:29:20.425Z,1.83
2022-10-13T23:34:21.895Z,1.88
2022-10-13T23:39:23.362Z,2.35
2022-10-13T23:44:24.811Z,2.28
2022-10-13T23:49:27.185Z,1.40
2022-10-13T23:54:30.718Z,1.70
2022-10-13T23:59:32.101Z,1.80
